createdAt,value
2018-11-12T00:00:16.409Z,45.75
2018-11-12T00:02:46.953Z,41.80
2018-11-12T00:05:16.525Z,47.17
2018-11-12T00:07:45.038Z,48.02
2018-11-12T00:10:14.284Z,49.23
2018-11-12T00:12:42.857Z,51.65
2018-11-12T00:15:12.209Z,46.37
2018-11-12T00:17:41.057Z,51.65
2018-11-12T00:20:10.795Z,45.28
2018-11-12T00:22:41.902Z,53.75
2018-11-12T00:25:10.757Z,52.80
2018-11-12T00:27:39.734Z,43.05
2018-11-12T00:30:10.990Z,50.23
2018-11-12T00:32:39.914Z,45.40
2018-11-12T00:35:09.374Z,48.60
2018-11-12T00:37:38.407Z,49.18
2018-11-12T00:40:08.536Z,48.95
2018-11-12T00:42:37.406Z,49.33
2018-11-12T00:45:06.268Z,45.85
2018-11-12T00:47:34.809Z,45.38
2018-11-12T00:50:03.353Z,53.02
2018-11-12T00:52:31.845Z,52.45
2018-11-12T00:55:00.386Z,44.50
2018-11-12T00:57:28.925Z,50.23
2018-11-12T00:59:57.628Z,43.25
2018-11-12T01:02:26.489Z,48.83
2018-11-12T01:04:55.033Z,43.80
2018-11-12T01:07:23.873Z,48.65
2018-11-12T01:09:52.400Z,47.23
2018-11-12T01:12:21.588Z,48.20
2018-11-12T01:14:50.460Z,44.00
2018-11-12T01:17:18.976Z,43.40
2018-11-12T01:19:47.821Z,43.40
2018-11-12T01:22:16.341Z,38.00
2018-11-12T01:24:45.179Z,41.40
2018-11-12T01:27:13.720Z,43.20
2018-11-12T01:29:42.249Z,45.90
2018-11-12T01:32:10.777Z,41.55
2018-11-12T01:34:39.282Z,39.48
2018-11-12T01:37:07.774Z,39.75
2018-11-12T01:39:36.522Z,43.48
2018-11-12T01:42:05.155Z,40.15
2018-11-12T01:44:33.851Z,41.33
2018-11-12T01:49:54.531Z,39.38
2018-11-12T01:52:23.406Z,43.85
2018-11-12T01:55:01.038Z,41.23
2018-11-12T01:57:32.848Z,43.33
2018-11-12T02:00:04.677Z,41.53
2018-11-12T02:02:33.641Z,46.73
2018-11-12T02:05:05.387Z,40.40
2018-11-12T02:07:45.527Z,43.75
2018-11-12T02:10:16.888Z,40.33
2018-11-12T02:18:29.611Z,46.55
2018-11-12T02:20:58.506Z,44.63
2018-11-12T02:23:27.725Z,44.95
2018-11-12T02:25:56.549Z,38.45
2018-11-12T02:28:25.406Z,43.80
2018-11-12T02:30:54.262Z,42.65
2018-11-12T02:33:22.830Z,45.43
2018-11-12T02:35:51.526Z,40.63
2018-11-12T02:38:20.354Z,36.53
2018-11-12T02:40:48.888Z,44.40
2018-11-12T02:43:17.398Z,40.95
2018-11-12T02:45:46.293Z,43.98
2018-11-12T02:48:14.809Z,40.83
2018-11-12T02:50:44.010Z,42.40
2018-11-12T02:53:12.908Z,43.35
2018-11-12T02:55:41.502Z,40.88
2018-11-12T02:58:10.423Z,44.03
2018-11-12T03:00:39.282Z,43.78
2018-11-12T03:03:07.824Z,51.98
2018-11-12T03:05:36.705Z,45.33
2018-11-12T03:08:05.633Z,44.45
2018-11-12T03:10:34.154Z,51.10
2018-11-12T03:13:02.670Z,44.40
2018-11-12T03:15:31.178Z,46.98
2018-11-12T03:18:00.277Z,43.10
2018-11-12T03:20:28.819Z,46.37
2018-11-12T03:22:57.685Z,39.58
2018-11-12T03:25:26.536Z,42.33
2018-11-12T03:27:55.771Z,42.10
2018-11-12T03:30:24.305Z,43.52
2018-11-12T03:32:53.692Z,43.40
2018-11-12T03:35:22.878Z,42.08
2018-11-12T03:37:51.981Z,49.80
2018-11-12T03:40:22.526Z,47.58
2018-11-12T03:42:51.202Z,59.50
2018-11-12T03:45:21.285Z,47.50
2018-11-12T03:47:50.148Z,43.52
2018-11-12T03:50:22.187Z,46.05
2018-11-12T03:52:50.905Z,43.65
2018-11-12T03:55:20.831Z,55.92
2018-11-12T03:57:50.026Z,44.90
2018-11-12T04:00:21.261Z,41.28
2018-11-12T04:02:49.903Z,45.20
2018-11-12T04:05:18.750Z,39.38
2018-11-12T04:07:47.262Z,37.17
2018-11-12T04:10:17.718Z,47.67
2018-11-12T04:12:46.899Z,42.03
2018-11-12T04:15:17.981Z,44.75
2018-11-12T04:17:46.903Z,43.65
2018-11-12T04:20:17.056Z,40.20
2018-11-12T04:23:03.173Z,42.93
2018-11-12T04:25:32.553Z,43.58
2018-11-12T04:28:01.841Z,43.85
2018-11-12T04:30:30.736Z,47.08
2018-11-12T04:32:59.252Z,38.40
2018-11-12T04:35:28.441Z,41.50
2018-11-12T04:37:57.481Z,42.78
2018-11-12T04:40:26.336Z,37.73
2018-11-12T04:42:55.173Z,40.25
2018-11-12T04:45:25.418Z,40.95
2018-11-12T04:47:55.857Z,36.98
2018-11-12T04:50:26.053Z,39.48
2018-11-12T04:52:54.878Z,39.65
2018-11-12T04:55:24.119Z,39.18
2018-11-12T04:57:52.807Z,39.38
2018-11-12T05:00:23.821Z,38.40
2018-11-12T05:02:52.505Z,35.98
2018-11-12T05:05:22.623Z,43.60
2018-11-12T05:07:52.002Z,41.68
2018-11-12T05:10:22.133Z,35.98
2018-11-12T05:12:51.446Z,44.42
2018-11-12T05:15:21.403Z,39.80
2018-11-12T05:17:50.383Z,42.50
2018-11-12T05:20:20.467Z,37.98
2018-11-12T05:22:49.775Z,43.08
2018-11-12T05:25:18.686Z,39.45
2018-11-12T05:27:47.296Z,40.52
2018-11-12T05:30:21.477Z,38.55
2018-11-12T05:32:50.325Z,46.10
2018-11-12T05:35:21.311Z,36.80
2018-11-12T05:37:52.122Z,39.58
2018-11-12T05:40:22.530Z,44.93
2018-11-12T05:42:52.046Z,35.60
2018-11-12T05:45:22.181Z,35.25
2018-11-12T05:47:52.313Z,35.92
2018-11-12T05:50:22.838Z,37.08
2018-11-12T05:52:52.649Z,34.30
2018-11-12T05:55:23.211Z,36.50
2018-11-12T05:57:51.831Z,36.65
2018-11-12T06:00:25.507Z,38.80
2018-11-12T06:02:54.382Z,37.00
2018-11-12T06:05:23.797Z,34.88
2018-11-12T06:07:53.354Z,37.45
2018-11-12T06:10:24.941Z,39.30
2018-11-12T06:12:53.468Z,39.48
2018-11-12T06:15:27.621Z,35.92
2018-11-12T06:17:56.742Z,36.50
2018-11-12T06:20:26.899Z,39.38
2018-11-12T06:22:55.411Z,34.60
2018-11-12T06:25:26.426Z,36.58
2018-11-12T06:28:01.692Z,37.13
2018-11-12T06:30:32.493Z,31.82
2018-11-12T06:33:08.420Z,34.40
2018-11-12T06:35:45.452Z,38.35
2018-11-12T06:38:15.684Z,35.45
2018-11-12T06:40:44.904Z,36.58
2018-11-12T06:43:13.832Z,45.12
2018-11-12T06:45:42.537Z,36.08
2018-11-12T06:48:11.368Z,32.15
2018-11-12T06:50:39.873Z,35.83
2018-11-12T06:53:08.451Z,36.93
2018-11-12T06:55:37.088Z,33.02
2018-11-12T06:58:05.922Z,36.20
2018-11-12T07:00:35.535Z,34.85
2018-11-12T07:03:04.046Z,37.78
2018-11-12T07:05:33.713Z,36.38
2018-11-12T07:08:02.242Z,35.60
2018-11-12T07:10:30.851Z,37.40
2018-11-12T07:13:00.073Z,42.10
2018-11-12T07:15:29.418Z,40.50
2018-11-12T07:17:58.618Z,33.60
2018-11-12T07:20:27.949Z,42.83
2018-11-12T07:22:56.824Z,44.10
2018-11-12T07:25:27.517Z,38.30
2018-11-12T07:27:56.474Z,34.60
2018-11-12T07:30:29.698Z,34.08
2018-11-12T07:32:59.514Z,34.73
2018-11-12T07:35:28.461Z,38.78
2018-11-12T07:37:58.707Z,33.28
2018-11-12T07:40:27.752Z,39.10
2018-11-12T07:42:57.054Z,35.73
2018-11-12T07:45:27.983Z,44.90
2018-11-12T07:47:58.377Z,37.65
2018-11-12T07:50:29.158Z,31.37
2018-11-12T07:52:58.078Z,32.25
2018-11-12T07:55:28.061Z,34.85
2018-11-12T07:57:58.133Z,34.53
2018-11-12T08:00:32.828Z,31.95
2018-11-12T08:03:06.663Z,30.02
2018-11-12T08:05:36.102Z,23.62
2018-11-12T08:08:06.015Z,26.17
2018-11-12T08:10:34.573Z,27.77
2018-11-12T08:13:04.388Z,26.90
2018-11-12T08:15:33.320Z,23.90
2018-11-12T08:18:02.753Z,26.12
2018-11-12T08:20:31.360Z,27.90
2018-11-12T08:22:59.893Z,27.55
2018-11-12T08:25:29.085Z,21.57
2018-11-12T08:27:58.010Z,24.75
2018-11-12T08:30:27.984Z,23.12
2018-11-12T08:32:58.020Z,19.90
2018-11-12T08:35:27.037Z,23.65
2018-11-12T08:37:56.137Z,25.97
2018-11-12T08:40:26.194Z,20.23
2018-11-12T08:43:11.615Z,22.30
2018-11-12T08:45:40.846Z,22.95
2018-11-12T08:48:10.642Z,23.95
2018-11-12T08:50:39.513Z,24.00
2018-11-12T08:53:08.042Z,30.08
2018-11-12T08:55:36.636Z,25.90
2018-11-12T08:58:06.075Z,20.97
2018-11-12T09:00:35.075Z,24.50
2018-11-12T09:03:04.462Z,21.33
2018-11-12T09:05:33.606Z,24.52
2018-11-12T09:08:03.200Z,23.35
2018-11-12T09:10:33.626Z,23.73
2018-11-12T09:13:02.240Z,23.22
2018-11-12T09:15:30.854Z,21.90
2018-11-12T09:18:00.497Z,29.70
2018-11-12T09:20:29.732Z,27.10
2018-11-12T09:22:59.282Z,23.05
2018-11-12T09:25:28.689Z,25.30
2018-11-12T09:27:57.901Z,23.62
2018-11-12T09:30:28.307Z,25.90
2018-11-12T09:32:57.188Z,26.62
2018-11-12T09:35:27.627Z,25.02
2018-11-12T09:37:57.078Z,28.50
2018-11-12T09:40:31.554Z,29.90
2018-11-12T09:43:00.702Z,29.10
2018-11-12T09:45:29.965Z,31.73
2018-11-12T09:47:59.574Z,28.00
2018-11-12T09:50:28.999Z,24.95
2018-11-12T09:52:59.063Z,32.33
2018-11-12T09:55:30.075Z,30.72
2018-11-12T09:58:00.910Z,31.00
2018-11-12T10:00:30.774Z,24.30
2018-11-12T10:03:00.800Z,30.60
2018-11-12T10:05:30.127Z,26.42
2018-11-12T10:08:02.163Z,23.90
2018-11-12T10:10:40.320Z,21.70
2018-11-12T10:13:10.810Z,23.02
2018-11-12T10:15:40.484Z,28.57
2018-11-12T10:18:09.206Z,22.10
2018-11-12T10:20:35.333Z,25.50
2018-11-12T10:23:04.206Z,18.48
2018-11-12T10:25:32.771Z,21.85
2018-11-12T10:28:01.705Z,19.95
2018-11-12T10:30:30.253Z,18.27
2018-11-12T10:32:59.646Z,17.37
2018-11-12T10:35:28.566Z,18.00
2018-11-12T10:37:57.758Z,15.90
2018-11-12T10:40:27.038Z,18.82
2018-11-12T10:42:55.617Z,14.83
2018-11-12T10:45:24.194Z,17.07
2018-11-12T10:47:53.507Z,19.57
2018-11-12T10:50:23.308Z,14.98
2018-11-12T10:52:52.063Z,12.70
2018-11-12T10:55:23.322Z,12.07
2018-11-12T10:57:52.995Z,10.80
2018-11-12T11:00:29.543Z,11.57
2018-11-12T11:03:04.712Z,9.33
2018-11-12T11:05:34.383Z,10.78
2018-11-12T11:08:04.438Z,10.20
2018-11-12T11:10:33.408Z,12.50
2018-11-12T11:13:03.713Z,14.68
2018-11-12T11:15:33.647Z,20.68
2018-11-12T11:18:02.620Z,10.58
2018-11-12T11:20:32.540Z,13.25
2018-11-12T11:23:02.595Z,16.05
2018-11-12T11:25:32.111Z,9.13
2018-11-12T11:28:00.955Z,10.63
2018-11-12T11:30:29.875Z,10.38
2018-11-12T11:32:58.752Z,10.28
2018-11-12T11:35:27.686Z,14.23
2018-11-12T11:37:56.620Z,11.08
2018-11-12T11:40:26.421Z,11.80
2018-11-12T11:42:55.655Z,9.65
2018-11-12T11:45:24.241Z,13.85
2018-11-12T11:47:53.615Z,12.58
2018-11-12T11:50:24.664Z,14.45
2018-11-12T11:52:53.718Z,19.62
2018-11-12T11:55:24.190Z,11.38
2018-11-12T11:57:53.173Z,11.83
2018-11-12T12:00:23.198Z,12.23
2018-11-12T12:02:53.109Z,11.80
2018-11-12T12:05:23.561Z,13.62
2018-11-12T12:07:54.041Z,14.75
2018-11-12T12:10:23.272Z,13.70
2018-11-12T12:12:52.485Z,14.73
2018-11-12T12:15:22.004Z,16.20
2018-11-12T12:17:50.907Z,16.42
2018-11-12T12:20:25.653Z,15.30
2018-11-12T12:22:55.830Z,17.10
2018-11-12T12:25:24.741Z,15.18
2018-11-12T12:27:54.379Z,13.22
2018-11-12T12:30:27.743Z,19.45
2018-11-12T12:32:57.243Z,13.22
2018-11-12T12:35:26.166Z,17.25
2018-11-12T12:37:56.298Z,15.30
2018-11-12T12:40:25.827Z,18.30
2018-11-12T12:42:54.522Z,18.85
2018-11-12T12:45:24.618Z,18.30
2018-11-12T12:47:54.281Z,17.85
2018-11-12T12:50:23.224Z,19.95
2018-11-12T12:52:52.138Z,17.73
2018-11-12T12:55:22.550Z,23.62
2018-11-12T12:57:51.269Z,20.23
2018-11-12T13:00:22.518Z,19.07
2018-11-12T13:02:52.005Z,18.27
2018-11-12T13:05:20.895Z,19.42
2018-11-12T13:07:50.082Z,21.20
2018-11-12T13:10:20.872Z,22.80
2018-11-12T13:12:49.815Z,17.45
2018-11-12T13:15:19.563Z,17.30
2018-11-12T13:17:49.066Z,25.12
2018-11-12T13:20:19.402Z,17.07
2018-11-12T13:22:48.779Z,19.65
2018-11-12T13:25:17.513Z,20.80
2018-11-12T13:27:46.657Z,19.80
2018-11-12T13:30:17.909Z,21.75
2018-11-12T13:32:47.206Z,21.42
2018-11-12T13:35:17.470Z,20.92
2018-11-12T13:37:46.083Z,25.97
2018-11-12T13:40:16.442Z,21.80
2018-11-12T13:42:46.391Z,22.37
2018-11-12T13:45:14.948Z,21.73
2018-11-12T13:47:44.097Z,17.23
2018-11-12T13:50:21.113Z,24.63
2018-11-12T13:52:50.746Z,24.18
2018-11-12T13:55:20.433Z,21.95
2018-11-12T13:57:49.968Z,24.55
2018-11-12T14:00:21.559Z,20.77
2018-11-12T14:02:51.158Z,24.87
2018-11-12T14:05:21.342Z,22.22
2018-11-12T14:07:50.240Z,23.50
2018-11-12T14:10:20.537Z,30.45
2018-11-12T14:12:50.443Z,23.00
2018-11-12T14:15:21.722Z,26.97
2018-11-12T14:17:51.961Z,32.63
2018-11-12T14:20:21.026Z,27.42
2018-11-12T14:22:55.383Z,24.87
2018-11-12T14:25:25.040Z,30.27
2018-11-12T14:27:55.061Z,27.95
2018-11-12T14:30:25.997Z,28.42
2018-11-12T14:32:55.783Z,29.45
2018-11-12T14:35:25.384Z,27.67
2018-11-12T14:37:54.438Z,31.33
2018-11-12T14:40:23.318Z,29.77
2018-11-12T14:42:51.842Z,32.15
2018-11-12T14:45:21.704Z,26.15
2018-11-12T14:47:51.738Z,25.72
2018-11-12T14:50:20.333Z,29.52
2018-11-12T14:52:49.522Z,31.37
2018-11-12T14:55:19.713Z,31.20
2018-11-12T14:57:48.228Z,30.08
2018-11-12T15:00:20.807Z,33.98
2018-11-12T15:02:49.504Z,30.82
2018-11-12T15:05:20.052Z,35.65
2018-11-12T15:07:49.271Z,31.77
2018-11-12T15:10:17.838Z,36.53
2018-11-12T15:12:47.227Z,36.33
2018-11-12T15:15:15.826Z,35.90
2018-11-12T15:17:45.084Z,34.18
2018-11-12T15:20:15.380Z,35.58
2018-11-12T15:22:44.896Z,38.33
2018-11-12T15:25:17.510Z,36.73
2018-11-12T15:27:46.439Z,38.38
2018-11-12T15:30:16.300Z,40.88
2018-11-12T15:32:46.038Z,44.15
2018-11-12T15:35:14.750Z,40.70
2018-11-12T15:37:45.075Z,44.50
2018-11-12T15:40:14.952Z,41.65
2018-11-12T15:42:44.148Z,44.80
2018-11-12T15:45:14.995Z,43.68
2018-11-12T15:47:44.662Z,43.85
2018-11-12T15:50:16.147Z,41.63
2018-11-12T15:52:45.582Z,46.33
2018-11-12T15:55:15.829Z,42.90
2018-11-12T15:57:43.961Z,37.30
2018-11-12T16:00:16.113Z,53.42
2018-11-12T16:02:45.329Z,46.83
2018-11-12T16:05:14.626Z,51.00
2018-11-12T16:07:44.045Z,48.08
2018-11-12T16:10:16.290Z,43.95
2018-11-12T16:12:45.885Z,47.43
2018-11-12T16:15:16.778Z,46.70
2018-11-12T16:17:47.184Z,42.40
2018-11-12T16:20:22.043Z,47.90
2018-11-12T16:22:51.324Z,50.75
2018-11-12T16:25:20.611Z,47.78
2018-11-12T16:27:51.370Z,43.00
2018-11-12T16:30:20.849Z,44.70
2018-11-12T16:32:51.049Z,46.92
2018-11-12T16:35:22.224Z,46.95
2018-11-12T16:37:55.770Z,48.98
2018-11-12T16:40:24.401Z,47.53
2018-11-12T16:42:53.069Z,47.45
2018-11-12T16:45:22.341Z,44.38
2018-11-12T16:47:51.649Z,50.12
2018-11-12T16:50:20.659Z,46.88
2018-11-12T16:52:49.257Z,51.48
2018-11-12T16:55:20.210Z,47.62
2018-11-12T16:57:49.874Z,55.45
2018-11-12T17:00:20.618Z,49.65
2018-11-12T17:02:49.342Z,43.02
2018-11-12T17:05:20.254Z,45.38
2018-11-12T17:07:49.222Z,49.55
2018-11-12T17:10:19.915Z,48.02
2018-11-12T17:12:50.821Z,47.25
2018-11-12T17:15:22.286Z,44.85
2018-11-12T17:17:52.605Z,42.45
2018-11-12T17:20:25.968Z,56.98
2018-11-12T17:22:55.647Z,47.00
2018-11-12T17:25:25.663Z,42.78
2018-11-12T17:27:55.506Z,51.30
2018-11-12T17:30:24.406Z,47.50
2018-11-12T17:32:53.000Z,44.70
2018-11-12T17:35:23.647Z,45.75
2018-11-12T17:37:57.453Z,51.45
2018-11-12T17:40:27.529Z,48.60
2018-11-12T17:42:57.445Z,52.90
2018-11-12T17:45:28.585Z,51.53
2018-11-12T17:47:59.440Z,45.70
2018-11-12T17:50:31.038Z,49.98
2018-11-12T17:53:00.943Z,43.92
2018-11-12T17:55:36.828Z,45.65
2018-11-12T18:00:59.868Z,47.88
2018-11-12T18:03:28.784Z,50.38
2018-11-12T18:05:57.384Z,51.60
2018-11-12T18:08:26.313Z,53.65
2018-11-12T18:10:58.296Z,53.63
2018-11-12T18:13:29.526Z,54.45
2018-11-12T18:15:58.469Z,49.53
2018-11-12T18:18:30.310Z,45.33
2018-11-12T18:21:00.244Z,46.50
2018-11-12T18:23:28.811Z,55.30
2018-11-12T18:25:58.887Z,54.45
2018-11-12T18:28:28.293Z,49.60
2018-11-12T18:31:03.506Z,47.43
2018-11-12T18:33:33.563Z,47.08
2018-11-12T18:38:53.666Z,47.00
2018-11-12T18:41:34.538Z,47.45
2018-11-12T18:44:03.817Z,53.80
2018-11-12T18:46:37.437Z,49.65
2018-11-12T18:49:06.533Z,43.33
2018-11-12T18:51:36.852Z,43.98
2018-11-12T18:54:07.965Z,49.50
2018-11-12T18:56:36.557Z,47.08
2018-11-12T18:59:05.400Z,48.17
2018-11-12T19:01:34.920Z,51.20
2018-11-12T19:04:04.578Z,49.18
2018-11-12T19:06:36.161Z,52.75
2018-11-12T19:09:07.860Z,49.13
2018-11-12T19:11:36.620Z,48.65
2018-11-12T19:14:07.894Z,49.15
2018-11-12T19:16:36.544Z,47.23
2018-11-12T19:19:05.804Z,51.70
2018-11-12T19:21:34.426Z,43.78
2018-11-12T19:24:04.323Z,47.62
2018-11-12T19:26:34.045Z,44.23
2018-11-12T19:32:26.610Z,45.12
2018-11-12T19:35:07.604Z,44.05
2018-11-12T19:37:36.696Z,42.20
2018-11-12T19:40:13.523Z,40.33
2018-11-12T19:42:43.685Z,47.15
2018-11-12T19:45:13.178Z,45.78
2018-11-12T19:47:43.767Z,41.45
2018-11-12T19:50:15.861Z,43.95
2018-11-12T19:52:46.762Z,52.00
2018-11-12T19:55:15.775Z,46.73
2018-11-12T19:57:47.250Z,45.78
2018-11-12T20:00:19.027Z,47.67
2018-11-12T20:02:53.313Z,44.55
2018-11-12T20:05:23.040Z,44.93
2018-11-12T20:07:52.518Z,45.78
2018-11-12T20:10:23.085Z,50.58
2018-11-12T20:12:52.817Z,46.25
2018-11-12T20:15:22.643Z,41.83
2018-11-12T20:17:51.979Z,45.30
2018-11-12T20:20:22.825Z,48.95
2018-11-12T20:22:52.745Z,47.17
2018-11-12T20:25:21.826Z,52.93
2018-11-12T20:27:51.379Z,44.20
2018-11-12T20:30:24.741Z,47.90
2018-11-12T20:32:53.909Z,43.35
2018-11-12T20:35:22.438Z,44.23
2018-11-12T20:37:51.284Z,43.45
2018-11-12T20:40:20.373Z,53.17
2018-11-12T20:42:50.008Z,48.95
2018-11-12T20:45:19.839Z,44.30
2018-11-12T20:47:50.164Z,49.23
2018-11-12T20:50:21.558Z,44.20
2018-11-12T20:52:50.390Z,43.08
2018-11-12T20:55:19.978Z,42.27
2018-11-12T20:57:48.909Z,41.30
2018-11-12T21:00:21.995Z,48.95
2018-11-12T21:02:52.325Z,48.28
2018-11-12T21:05:24.960Z,44.00
2018-11-12T21:07:53.958Z,43.92
2018-11-12T21:10:24.616Z,41.08
2018-11-12T21:12:54.867Z,41.18
2018-11-12T21:15:25.889Z,39.53
2018-11-12T21:17:54.396Z,45.28
2018-11-12T21:23:02.878Z,53.35
2018-11-12T21:25:34.909Z,44.88
2018-11-12T21:28:08.297Z,43.28
2018-11-12T21:30:39.350Z,40.70
2018-11-12T21:33:10.543Z,44.60
2018-11-12T21:35:41.387Z,40.67
2018-11-12T21:38:10.482Z,40.58
2018-11-12T21:40:39.765Z,39.63
2018-11-12T21:43:09.295Z,39.42
2018-11-12T21:45:37.910Z,38.63
2018-11-12T21:48:06.470Z,43.87
2018-11-12T21:50:34.980Z,34.35
2018-11-12T21:53:04.112Z,41.48
2018-11-12T21:55:38.761Z,46.63
2018-11-12T21:58:07.285Z,38.45
2018-11-12T22:00:37.221Z,39.08
2018-11-12T22:03:07.419Z,39.27
2018-11-12T22:05:35.994Z,57.20
2018-11-12T22:08:05.715Z,40.45
2018-11-12T22:10:34.257Z,38.28
2018-11-12T22:13:02.766Z,34.95
2018-11-12T22:15:31.307Z,36.58
2018-11-12T22:20:34.159Z,50.55
2018-11-12T22:23:02.995Z,39.58
2018-11-12T22:25:32.183Z,34.80
2018-11-12T22:28:01.393Z,34.88
2018-11-12T22:30:30.442Z,35.45
2018-11-12T22:32:58.994Z,40.95
2018-11-12T22:35:27.859Z,34.13
2018-11-12T22:37:56.388Z,36.88
2018-11-12T22:40:24.911Z,32.33
2018-11-12T22:42:53.865Z,35.52
2018-11-12T22:45:24.601Z,34.15
2018-11-12T22:47:53.804Z,37.48
2018-11-12T22:50:36.562Z,39.67
2018-11-12T22:53:09.931Z,34.20
2018-11-12T22:55:38.454Z,41.02
2018-11-12T22:58:08.093Z,33.08
2018-11-12T23:00:39.353Z,34.48
2018-11-12T23:03:08.129Z,35.33
2018-11-12T23:05:37.002Z,38.55
2018-11-12T23:08:05.593Z,40.12
2018-11-12T23:10:34.453Z,40.40
2018-11-12T23:13:03.637Z,33.95
2018-11-12T23:15:33.471Z,33.00
2018-11-12T23:18:02.357Z,32.67
2018-11-12T23:20:31.519Z,46.80
2018-11-12T23:23:00.048Z,35.33
2018-11-12T23:25:28.583Z,30.80
2018-11-12T23:27:57.151Z,38.78
2018-11-12T23:30:26.141Z,33.30
2018-11-12T23:32:54.670Z,37.80
2018-11-12T23:35:24.450Z,38.13
2018-11-12T23:37:53.631Z,40.85
2018-11-12T23:40:22.798Z,35.30
2018-11-12T23:42:51.683Z,36.53
2018-11-12T23:45:20.858Z,33.60
2018-11-12T23:48:04.326Z,33.80
2018-11-12T23:50:33.558Z,39.35
2018-11-12T23:53:02.070Z,37.60
2018-11-12T23:55:31.020Z,40.55
2018-11-12T23:58:00.209Z,35.85
